sensor_id;sensor_type;location;lat;lon;timestamp;P1;durP1;ratioP1;P2;durP2;ratioP2
18376;SDS011;9315;52.624;13.544;2023-06-22T00:00:12;10.38;;;8.68;;
18376;SDS011;9315;52.624;13.544;2023-06-22T00:02:40;10.80;;;9.38;;
18376;SDS011;9315;52.624;13.544;2023-06-22T00:05:07;12.82;;;9.65;;
18376;SDS011;9315;52.624;13.544;2023-06-22T00:07:34;13.43;;;10.85;;
18376;SDS011;9315;52.624;13.544;2023-06-22T00:10:01;12.73;;;9.55;;
18376;SDS011;9315;52.624;13.544;2023-06-22T00:12:28;11.27;;;9.82;;
18376;SDS011;9315;52.624;13.544;2023-06-22T00:14:56;13.75;;;9.88;;
18376;SDS011;9315;52.624;13.544;2023-06-22T00:17:23;12.38;;;9.38;;
18376;SDS011;9315;52.624;13.544;2023-06-22T00:19:50;13.43;;;10.63;;
18376;SDS011;9315;52.624;13.544;2023-06-22T00:22:19;16.13;;;11.35;;
18376;SDS011;9315;52.624;13.544;2023-06-22T00:24:55;13.65;;;10.20;;
18376;SDS011;9315;52.624;13.544;2023-06-22T00:27:23;13.10;;;10.40;;
18376;SDS011;9315;52.624;13.544;2023-06-22T00:29:50;13.75;;;10.68;;
18376;SDS011;9315;52.624;13.544;2023-06-22T00:32:17;15.55;;;11.48;;
18376;SDS011;9315;52.624;13.544;2023-06-22T00:34:45;13.88;;;11.18;;
18376;SDS011;9315;52.624;13.544;2023-06-22T00:37:12;17.08;;;11.48;;
18376;SDS011;9315;52.624;13.544;2023-06-22T00:39:39;14.52;;;11.30;;
18376;SDS011;9315;52.624;13.544;2023-06-22T00:42:06;15.52;;;11.63;;
18376;SDS011;9315;52.624;13.544;2023-06-22T00:44:34;14.77;;;11.40;;
18376;SDS011;9315;52.624;13.544;2023-06-22T00:47:04;15.73;;;11.43;;
18376;SDS011;9315;52.624;13.544;2023-06-22T00:49:32;17.02;;;12.13;;
18376;SDS011;9315;52.624;13.544;2023-06-22T00:52:00;13.85;;;11.50;;
18376;SDS011;9315;52.624;13.544;2023-06-22T00:54:27;15.48;;;11.60;;
18376;SDS011;9315;52.624;13.544;2023-06-22T00:56:54;15.07;;;11.95;;
18376;SDS011;9315;52.624;13.544;2023-06-22T00:59:23;15.52;;;12.23;;
18376;SDS011;9315;52.624;13.544;2023-06-22T01:01:52;17.23;;;12.18;;
18376;SDS011;9315;52.624;13.544;2023-06-22T01:04:19;16.38;;;12.50;;
18376;SDS011;9315;52.624;13.544;2023-06-22T01:07:02;20.10;;;12.77;;
18376;SDS011;9315;52.624;13.544;2023-06-22T01:10:16;15.00;;;11.95;;
18376;SDS011;9315;52.624;13.544;2023-06-22T01:13:04;16.95;;;10.60;;
18376;SDS011;9315;52.624;13.544;2023-06-22T01:15:53;13.02;;;10.40;;
18376;SDS011;9315;52.624;13.544;2023-06-22T01:18:35;14.13;;;11.02;;
18376;SDS011;9315;52.624;13.544;2023-06-22T01:21:06;16.05;;;10.70;;
18376;SDS011;9315;52.624;13.544;2023-06-22T01:23:43;14.48;;;10.98;;
18376;SDS011;9315;52.624;13.544;2023-06-22T01:29:20;15.40;;;11.85;;
18376;SDS011;9315;52.624;13.544;2023-06-22T01:31:48;15.10;;;10.88;;
18376;SDS011;9315;52.624;13.544;2023-06-22T01:34:17;14.48;;;12.07;;
18376;SDS011;9315;52.624;13.544;2023-06-22T01:36:45;17.42;;;12.25;;
18376;SDS011;9315;52.624;13.544;2023-06-22T01:39:13;15.97;;;11.80;;
18376;SDS011;9315;52.624;13.544;2023-06-22T01:41:41;13.82;;;11.88;;
18376;SDS011;9315;52.624;13.544;2023-06-22T01:44:09;14.23;;;11.67;;
18376;SDS011;9315;52.624;13.544;2023-06-22T01:46:38;15.50;;;11.80;;
18376;SDS011;9315;52.624;13.544;2023-06-22T01:49:08;14.38;;;10.95;;
18376;SDS011;9315;52.624;13.544;2023-06-22T01:51:38;15.50;;;11.70;;
18376;SDS011;9315;52.624;13.544;2023-06-22T01:54:06;15.65;;;11.55;;
18376;SDS011;9315;52.624;13.544;2023-06-22T01:56:34;13.87;;;11.60;;
18376;SDS011;9315;52.624;13.544;2023-06-22T02:02:06;15.20;;;12.17;;
18376;SDS011;9315;52.624;13.544;2023-06-22T02:04:41;16.25;;;12.52;;
18376;SDS011;9315;52.624;13.544;2023-06-22T02:07:14;19.00;;;11.87;;
18376;SDS011;9315;52.624;13.544;2023-06-22T02:09:45;20.48;;;12.82;;
18376;SDS011;9315;52.624;13.544;2023-06-22T02:12:17;27.88;;;13.80;;
18376;SDS011;9315;52.624;13.544;2023-06-22T02:14:50;20.23;;;13.32;;
18376;SDS011;9315;52.624;13.544;2023-06-22T02:17:18;17.40;;;12.87;;
18376;SDS011;9315;52.624;13.544;2023-06-22T02:19:49;18.53;;;13.00;;
18376;SDS011;9315;52.624;13.544;2023-06-22T02:22:16;20.33;;;13.13;;
18376;SDS011;9315;52.624;13.544;2023-06-22T02:24:44;20.90;;;12.80;;
18376;SDS011;9315;52.624;13.544;2023-06-22T02:27:11;17.80;;;12.20;;
18376;SDS011;9315;52.624;13.544;2023-06-22T02:29:38;17.13;;;12.40;;
18376;SDS011;9315;52.624;13.544;2023-06-22T02:32:06;16.97;;;12.87;;
18376;SDS011;9315;52.624;13.544;2023-06-22T02:34:34;19.80;;;12.77;;
18376;SDS011;9315;52.624;13.544;2023-06-22T02:37:02;19.30;;;12.03;;
18376;SDS011;9315;52.624;13.544;2023-06-22T02:39:31;17.43;;;13.63;;
18376;SDS011;9315;52.624;13.544;2023-06-22T02:41:58;15.20;;;13.10;;
18376;SDS011;9315;52.624;13.544;2023-06-22T02:44:25;18.97;;;13.07;;
18376;SDS011;9315;52.624;13.544;2023-06-22T02:46:52;17.42;;;12.50;;
18376;SDS011;9315;52.624;13.544;2023-06-22T02:49:20;19.47;;;12.40;;
18376;SDS011;9315;52.624;13.544;2023-06-22T02:51:48;21.37;;;13.20;;
18376;SDS011;9315;52.624;13.544;2023-06-22T02:54:15;20.03;;;13.43;;
18376;SDS011;9315;52.624;13.544;2023-06-22T02:56:43;14.50;;;12.27;;
18376;SDS011;9315;52.624;13.544;2023-06-22T02:59:10;15.53;;;12.83;;
18376;SDS011;9315;52.624;13.544;2023-06-22T03:01:37;22.37;;;13.77;;
18376;SDS011;9315;52.624;13.544;2023-06-22T03:04:07;19.87;;;13.63;;
18376;SDS011;9315;52.624;13.544;2023-06-22T03:06:35;17.83;;;13.40;;
18376;SDS011;9315;52.624;13.544;2023-06-22T03:09:04;19.07;;;14.30;;
18376;SDS011;9315;52.624;13.544;2023-06-22T03:11:31;19.90;;;13.77;;
18376;SDS011;9315;52.624;13.544;2023-06-22T03:14:00;20.48;;;12.18;;
18376;SDS011;9315;52.624;13.544;2023-06-22T03:16:28;19.27;;;13.33;;
18376;SDS011;9315;52.624;13.544;2023-06-22T03:18:55;19.90;;;13.37;;
18376;SDS011;9315;52.624;13.544;2023-06-22T03:21:23;17.40;;;12.73;;
18376;SDS011;9315;52.624;13.544;2023-06-22T03:23:52;19.30;;;13.93;;
18376;SDS011;9315;52.624;13.544;2023-06-22T03:26:19;20.20;;;13.73;;
18376;SDS011;9315;52.624;13.544;2023-06-22T03:28:46;19.60;;;14.03;;
18376;SDS011;9315;52.624;13.544;2023-06-22T03:31:13;17.20;;;13.97;;
18376;SDS011;9315;52.624;13.544;2023-06-22T03:33:40;20.27;;;13.90;;
18376;SDS011;9315;52.624;13.544;2023-06-22T03:36:08;20.57;;;14.67;;
18376;SDS011;9315;52.624;13.544;2023-06-22T03:38:35;19.77;;;13.90;;
18376;SDS011;9315;52.624;13.544;2023-06-22T03:41:02;18.23;;;13.13;;
18376;SDS011;9315;52.624;13.544;2023-06-22T03:43:29;21.00;;;14.23;;
18376;SDS011;9315;52.624;13.544;2023-06-22T03:45:56;21.40;;;14.77;;
18376;SDS011;9315;52.624;13.544;2023-06-22T03:48:23;20.67;;;14.77;;
18376;SDS011;9315;52.624;13.544;2023-06-22T03:50:50;20.87;;;14.87;;
18376;SDS011;9315;52.624;13.544;2023-06-22T03:53:18;14.43;;;12.30;;
18376;SDS011;9315;52.624;13.544;2023-06-22T03:55:48;19.40;;;13.47;;
18376;SDS011;9315;52.624;13.544;2023-06-22T03:58:19;21.83;;;13.53;;
18376;SDS011;9315;52.624;13.544;2023-06-22T04:00:48;18.30;;;13.33;;
18376;SDS011;9315;52.624;13.544;2023-06-22T04:03:18;19.30;;;13.07;;
18376;SDS011;9315;52.624;13.544;2023-06-22T04:05:46;16.47;;;12.97;;
18376;SDS011;9315;52.624;13.544;2023-06-22T04:08:14;18.97;;;13.83;;
18376;SDS011;9315;52.624;13.544;2023-06-22T04:10:42;17.77;;;12.97;;
18376;SDS011;9315;52.624;13.544;2023-06-22T04:13:09;18.63;;;12.70;;
18376;SDS011;9315;52.624;13.544;2023-06-22T04:15:39;18.90;;;13.27;;
18376;SDS011;9315;52.624;13.544;2023-06-22T04:18:06;18.43;;;12.83;;
18376;SDS011;9315;52.624;13.544;2023-06-22T04:20:36;20.23;;;12.05;;
18376;SDS011;9315;52.624;13.544;2023-06-22T04:23:03;16.30;;;11.50;;
18376;SDS011;9315;52.624;13.544;2023-06-22T04:25:30;17.73;;;9.70;;
18376;SDS011;9315;52.624;13.544;2023-06-22T04:27:57;15.07;;;10.60;;
18376;SDS011;9315;52.624;13.544;2023-06-22T04:30:25;13.25;;;10.77;;
18376;SDS011;9315;52.624;13.544;2023-06-22T04:32:52;17.15;;;9.68;;
18376;SDS011;9315;52.624;13.544;2023-06-22T04:35:24;12.83;;;9.43;;
18376;SDS011;9315;52.624;13.544;2023-06-22T04:37:52;16.48;;;9.63;;
18376;SDS011;9315;52.624;13.544;2023-06-22T04:40:24;17.65;;;9.55;;
18376;SDS011;9315;52.624;13.544;2023-06-22T04:42:52;12.00;;;8.40;;
18376;SDS011;9315;52.624;13.544;2023-06-22T04:45:20;12.55;;;8.73;;
18376;SDS011;9315;52.624;13.544;2023-06-22T04:47:48;16.33;;;8.75;;
18376;SDS011;9315;52.624;13.544;2023-06-22T04:50:15;15.93;;;7.78;;
18376;SDS011;9315;52.624;13.544;2023-06-22T04:52:44;11.50;;;7.70;;
18376;SDS011;9315;52.624;13.544;2023-06-22T04:55:11;9.02;;;7.07;;
18376;SDS011;9315;52.624;13.544;2023-06-22T04:57:45;11.75;;;7.90;;
18376;SDS011;9315;52.624;13.544;2023-06-22T05:00:16;10.65;;;7.07;;
18376;SDS011;9315;52.624;13.544;2023-06-22T05:02:49;11.25;;;8.07;;
18376;SDS011;9315;52.624;13.544;2023-06-22T05:05:16;14.63;;;7.13;;
18376;SDS011;9315;52.624;13.544;2023-06-22T05:07:44;13.93;;;7.65;;
18376;SDS011;9315;52.624;13.544;2023-06-22T05:10:14;9.02;;;6.32;;
18376;SDS011;9315;52.624;13.544;2023-06-22T05:12:46;6.38;;;4.93;;
18376;SDS011;9315;52.624;13.544;2023-06-22T05:15:13;8.52;;;4.20;;
18376;SDS011;9315;52.624;13.544;2023-06-22T05:17:41;10.73;;;4.55;;
18376;SDS011;9315;52.624;13.544;2023-06-22T05:20:12;9.32;;;4.22;;
18376;SDS011;9315;52.624;13.544;2023-06-22T05:22:44;5.57;;;4.45;;
18376;SDS011;9315;52.624;13.544;2023-06-22T05:25:11;6.53;;;4.35;;
18376;SDS011;9315;52.624;13.544;2023-06-22T05:27:39;5.78;;;4.10;;
18376;SDS011;9315;52.624;13.544;2023-06-22T05:30:07;8.23;;;4.32;;
18376;SDS011;9315;52.624;13.544;2023-06-22T05:32:36;5.43;;;3.90;;
18376;SDS011;9315;52.624;13.544;2023-06-22T05:35:03;7.05;;;4.13;;
18376;SDS011;9315;52.624;13.544;2023-06-22T05:37:31;5.50;;;3.92;;
18376;SDS011;9315;52.624;13.544;2023-06-22T05:39:59;6.25;;;3.67;;
18376;SDS011;9315;52.624;13.544;2023-06-22T05:42:26;5.40;;;3.38;;
18376;SDS011;9315;52.624;13.544;2023-06-22T05:44:53;5.30;;;3.28;;
18376;SDS011;9315;52.624;13.544;2023-06-22T05:47:21;5.90;;;3.30;;
18376;SDS011;9315;52.624;13.544;2023-06-22T05:49:49;5.60;;;3.80;;
18376;SDS011;9315;52.624;13.544;2023-06-22T05:52:16;7.80;;;3.67;;
18376;SDS011;9315;52.624;13.544;2023-06-22T05:54:44;6.65;;;3.20;;
18376;SDS011;9315;52.624;13.544;2023-06-22T05:57:11;5.60;;;3.75;;
18376;SDS011;9315;52.624;13.544;2023-06-22T05:59:38;5.07;;;3.70;;
18376;SDS011;9315;52.624;13.544;2023-06-22T06:02:05;7.22;;;3.55;;
18376;SDS011;9315;52.624;13.544;2023-06-22T06:04:33;7.15;;;4.05;;
18376;SDS011;9315;52.624;13.544;2023-06-22T06:07:00;7.00;;;4.32;;
18376;SDS011;9315;52.624;13.544;2023-06-22T06:09:28;6.78;;;3.88;;
18376;SDS011;9315;52.624;13.544;2023-06-22T06:11:55;9.18;;;4.28;;
18376;SDS011;9315;52.624;13.544;2023-06-22T06:14:22;7.72;;;4.20;;
18376;SDS011;9315;52.624;13.544;2023-06-22T06:16:52;6.65;;;3.75;;
18376;SDS011;9315;52.624;13.544;2023-06-22T06:19:19;5.05;;;3.92;;
18376;SDS011;9315;52.624;13.544;2023-06-22T06:21:47;6.78;;;3.90;;
18376;SDS011;9315;52.624;13.544;2023-06-22T06:24:15;8.70;;;3.70;;
18376;SDS011;9315;52.624;13.544;2023-06-22T06:26:43;8.50;;;3.92;;
18376;SDS011;9315;52.624;13.544;2023-06-22T06:29:10;5.38;;;3.25;;
18376;SDS011;9315;52.624;13.544;2023-06-22T06:31:37;7.22;;;3.58;;
18376;SDS011;9315;52.624;13.544;2023-06-22T06:34:04;3.90;;;3.00;;
18376;SDS011;9315;52.624;13.544;2023-06-22T06:36:31;7.53;;;2.85;;
18376;SDS011;9315;52.624;13.544;2023-06-22T06:38:58;6.22;;;3.03;;
18376;SDS011;9315;52.624;13.544;2023-06-22T06:41:26;5.88;;;3.22;;
18376;SDS011;9315;52.624;13.544;2023-06-22T06:43:53;5.70;;;2.90;;
18376;SDS011;9315;52.624;13.544;2023-06-22T06:46:20;3.63;;;2.90;;
18376;SDS011;9315;52.624;13.544;2023-06-22T06:48:47;6.78;;;3.13;;
18376;SDS011;9315;52.624;13.544;2023-06-22T06:51:19;4.25;;;3.03;;
18376;SDS011;9315;52.624;13.544;2023-06-22T06:53:46;4.80;;;2.95;;
18376;SDS011;9315;52.624;13.544;2023-06-22T06:56:13;3.90;;;2.60;;
18376;SDS011;9315;52.624;13.544;2023-06-22T06:58:41;3.88;;;2.45;;
18376;SDS011;9315;52.624;13.544;2023-06-22T07:01:08;5.05;;;2.75;;
18376;SDS011;9315;52.624;13.544;2023-06-22T07:03:36;7.57;;;2.45;;
18376;SDS011;9315;52.624;13.544;2023-06-22T07:06:03;11.15;;;2.70;;
18376;SDS011;9315;52.624;13.544;2023-06-22T07:08:30;10.18;;;2.60;;
18376;SDS011;9315;52.624;13.544;2023-06-22T07:10:57;7.97;;;2.70;;
18376;SDS011;9315;52.624;13.544;2023-06-22T07:13:25;4.95;;;2.00;;
18376;SDS011;9315;52.624;13.544;2023-06-22T07:15:54;2.70;;;2.20;;
18376;SDS011;9315;52.624;13.544;2023-06-22T07:18:21;6.22;;;2.45;;
18376;SDS011;9315;52.624;13.544;2023-06-22T07:20:49;6.30;;;2.53;;
18376;SDS011;9315;52.624;13.544;2023-06-22T07:23:16;4.03;;;2.35;;
18376;SDS011;9315;52.624;13.544;2023-06-22T07:25:44;4.35;;;2.45;;
18376;SDS011;9315;52.624;13.544;2023-06-22T07:28:12;5.07;;;2.35;;
18376;SDS011;9315;52.624;13.544;2023-06-22T07:30:39;4.45;;;2.28;;
18376;SDS011;9315;52.624;13.544;2023-06-22T07:33:06;5.05;;;2.50;;
18376;SDS011;9315;52.624;13.544;2023-06-22T07:35:35;3.80;;;2.10;;
18376;SDS011;9315;52.624;13.544;2023-06-22T07:38:02;3.13;;;2.13;;
18376;SDS011;9315;52.624;13.544;2023-06-22T07:40:31;2.47;;;2.17;;
18376;SDS011;9315;52.624;13.544;2023-06-22T07:43:00;4.00;;;2.40;;
18376;SDS011;9315;52.624;13.544;2023-06-22T07:45:27;6.32;;;2.50;;
18376;SDS011;9315;52.624;13.544;2023-06-22T07:47:55;4.60;;;2.40;;
18376;SDS011;9315;52.624;13.544;2023-06-22T07:50:25;5.10;;;2.30;;
18376;SDS011;9315;52.624;13.544;2023-06-22T07:52:53;3.13;;;2.03;;
18376;SDS011;9315;52.624;13.544;2023-06-22T07:55:20;3.38;;;2.00;;
18376;SDS011;9315;52.624;13.544;2023-06-22T07:57:48;5.43;;;2.40;;
18376;SDS011;9315;52.624;13.544;2023-06-22T08:00:18;4.97;;;2.00;;
18376;SDS011;9315;52.624;13.544;2023-06-22T08:02:46;3.03;;;1.98;;
18376;SDS011;9315;52.624;13.544;2023-06-22T08:05:14;4.68;;;2.00;;
18376;SDS011;9315;52.624;13.544;2023-06-22T08:07:59;4.05;;;1.90;;
18376;SDS011;9315;52.624;13.544;2023-06-22T08:10:26;4.20;;;2.17;;
18376;SDS011;9315;52.624;13.544;2023-06-22T08:12:54;7.10;;;1.90;;
18376;SDS011;9315;52.624;13.544;2023-06-22T08:15:21;5.13;;;1.77;;
18376;SDS011;9315;52.624;13.544;2023-06-22T08:17:51;4.45;;;1.90;;
18376;SDS011;9315;52.624;13.544;2023-06-22T08:20:19;3.70;;;2.00;;
18376;SDS011;9315;52.624;13.544;2023-06-22T08:22:46;8.07;;;1.90;;
18376;SDS011;9315;52.624;13.544;2023-06-22T08:25:14;6.75;;;2.10;;
18376;SDS011;9315;52.624;13.544;2023-06-22T08:27:44;3.15;;;2.00;;
18376;SDS011;9315;52.624;13.544;2023-06-22T08:30:14;7.43;;;2.05;;
18376;SDS011;9315;52.624;13.544;2023-06-22T08:32:41;2.92;;;1.90;;
18376;SDS011;9315;52.624;13.544;2023-06-22T08:35:08;5.32;;;1.92;;
18376;SDS011;9315;52.624;13.544;2023-06-22T08:37:36;4.57;;;1.73;;
18376;SDS011;9315;52.624;13.544;2023-06-22T08:40:06;4.28;;;2.03;;
18376;SDS011;9315;52.624;13.544;2023-06-22T08:42:37;4.45;;;2.08;;
18376;SDS011;9315;52.624;13.544;2023-06-22T08:45:08;3.80;;;2.15;;
18376;SDS011;9315;52.624;13.544;2023-06-22T08:47:38;6.93;;;1.70;;
18376;SDS011;9315;52.624;13.544;2023-06-22T08:50:10;3.33;;;2.10;;
18376;SDS011;9315;52.624;13.544;2023-06-22T08:52:39;7.05;;;2.20;;
18376;SDS011;9315;52.624;13.544;2023-06-22T08:55:07;8.02;;;2.10;;
18376;SDS011;9315;52.624;13.544;2023-06-22T08:57:36;6.72;;;1.90;;
18376;SDS011;9315;52.624;13.544;2023-06-22T09:00:08;3.05;;;2.00;;
18376;SDS011;9315;52.624;13.544;2023-06-22T09:02:46;3.83;;;2.33;;
18376;SDS011;9315;52.624;13.544;2023-06-22T09:05:14;3.90;;;2.10;;
18376;SDS011;9315;52.624;13.544;2023-06-22T09:07:42;2.97;;;2.45;;
18376;SDS011;9315;52.624;13.544;2023-06-22T09:10:10;3.38;;;2.35;;
18376;SDS011;9315;52.624;13.544;2023-06-22T09:12:37;4.80;;;2.53;;
18376;SDS011;9315;52.624;13.544;2023-06-22T09:15:06;4.53;;;2.53;;
18376;SDS011;9315;52.624;13.544;2023-06-22T09:17:37;3.47;;;2.20;;
18376;SDS011;9315;52.624;13.544;2023-06-22T09:20:05;5.95;;;2.33;;
18376;SDS011;9315;52.624;13.544;2023-06-22T09:22:36;4.00;;;2.17;;
18376;SDS011;9315;52.624;13.544;2023-06-22T09:25:04;7.32;;;2.33;;
18376;SDS011;9315;52.624;13.544;2023-06-22T09:27:33;5.70;;;2.17;;
18376;SDS011;9315;52.624;13.544;2023-06-22T09:30:02;7.93;;;2.60;;
18376;SDS011;9315;52.624;13.544;2023-06-22T09:32:31;4.85;;;2.65;;
18376;SDS011;9315;52.624;13.544;2023-06-22T09:34:58;3.83;;;1.92;;
18376;SDS011;9315;52.624;13.544;2023-06-22T09:37:25;3.90;;;2.47;;
18376;SDS011;9315;52.624;13.544;2023-06-22T09:39:52;2.85;;;2.30;;
18376;SDS011;9315;52.624;13.544;2023-06-22T09:42:19;6.80;;;2.28;;
18376;SDS011;9315;52.624;13.544;2023-06-22T09:44:47;3.17;;;2.20;;
18376;SDS011;9315;52.624;13.544;2023-06-22T09:47:15;3.08;;;2.08;;
18376;SDS011;9315;52.624;13.544;2023-06-22T09:49:42;4.35;;;2.50;;
18376;SDS011;9315;52.624;13.544;2023-06-22T09:52:13;3.05;;;2.10;;
18376;SDS011;9315;52.624;13.544;2023-06-22T09:54:42;8.45;;;2.92;;
18376;SDS011;9315;52.624;13.544;2023-06-22T09:57:10;7.50;;;2.58;;
18376;SDS011;9315;52.624;13.544;2023-06-22T09:59:37;3.75;;;2.28;;
18376;SDS011;9315;52.624;13.544;2023-06-22T10:02:06;6.70;;;2.38;;
18376;SDS011;9315;52.624;13.544;2023-06-22T10:04:34;2.33;;;2.08;;
18376;SDS011;9315;52.624;13.544;2023-06-22T10:07:02;2.80;;;2.47;;
18376;SDS011;9315;52.624;13.544;2023-06-22T10:09:30;6.15;;;2.40;;
18376;SDS011;9315;52.624;13.544;2023-06-22T10:11:57;3.70;;;2.20;;
18376;SDS011;9315;52.624;13.544;2023-06-22T10:14:24;2.83;;;1.95;;
18376;SDS011;9315;52.624;13.544;2023-06-22T10:16:54;3.25;;;1.85;;
18376;SDS011;9315;52.624;13.544;2023-06-22T10:19:25;3.97;;;1.98;;
18376;SDS011;9315;52.624;13.544;2023-06-22T10:21:52;3.72;;;2.10;;
18376;SDS011;9315;52.624;13.544;2023-06-22T10:24:20;3.20;;;1.90;;
18376;SDS011;9315;52.624;13.544;2023-06-22T10:26:47;2.13;;;1.80;;
18376;SDS011;9315;52.624;13.544;2023-06-22T10:29:14;2.90;;;1.98;;
18376;SDS011;9315;52.624;13.544;2023-06-22T10:31:43;6.22;;;1.98;;
18376;SDS011;9315;52.624;13.544;2023-06-22T10:34:10;4.88;;;1.88;;
18376;SDS011;9315;52.624;13.544;2023-06-22T10:36:37;3.65;;;1.77;;
18376;SDS011;9315;52.624;13.544;2023-06-22T10:39:05;2.50;;;1.88;;
18376;SDS011;9315;52.624;13.544;2023-06-22T10:41:35;3.60;;;1.70;;
18376;SDS011;9315;52.624;13.544;2023-06-22T10:44:02;2.42;;;1.95;;
18376;SDS011;9315;52.624;13.544;2023-06-22T10:46:30;2.10;;;1.67;;
18376;SDS011;9315;52.624;13.544;2023-06-22T10:48:57;3.83;;;2.00;;
18376;SDS011;9315;52.624;13.544;2023-06-22T10:51:25;2.67;;;1.85;;
18376;SDS011;9315;52.624;13.544;2023-06-22T10:53:54;2.22;;;1.80;;
18376;SDS011;9315;52.624;13.544;2023-06-22T10:56:21;3.58;;;1.80;;
18376;SDS011;9315;52.624;13.544;2023-06-22T10:58:48;2.42;;;1.92;;
18376;SDS011;9315;52.624;13.544;2023-06-22T11:01:16;3.78;;;1.90;;
18376;SDS011;9315;52.624;13.544;2023-06-22T11:04:01;4.10;;;1.42;;
18376;SDS011;9315;52.624;13.544;2023-06-22T11:06:29;3.03;;;2.10;;
18376;SDS011;9315;52.624;13.544;2023-06-22T11:08:56;5.53;;;2.10;;
18376;SDS011;9315;52.624;13.544;2023-06-22T11:11:32;2.72;;;2.35;;
18376;SDS011;9315;52.624;13.544;2023-06-22T11:13:59;2.38;;;1.48;;
18376;SDS011;9315;52.624;13.544;2023-06-22T11:16:27;3.33;;;2.10;;
18376;SDS011;9315;52.624;13.544;2023-06-22T11:18:54;3.13;;;2.08;;
18376;SDS011;9315;52.624;13.544;2023-06-22T11:21:21;2.95;;;2.15;;
18376;SDS011;9315;52.624;13.544;2023-06-22T11:23:49;2.92;;;2.10;;
18376;SDS011;9315;52.624;13.544;2023-06-22T11:26:16;2.10;;;1.90;;
18376;SDS011;9315;52.624;13.544;2023-06-22T11:28:44;6.03;;;2.35;;
18376;SDS011;9315;52.624;13.544;2023-06-22T11:31:11;2.67;;;2.20;;
18376;SDS011;9315;52.624;13.544;2023-06-22T11:33:41;3.75;;;2.08;;
18376;SDS011;9315;52.624;13.544;2023-06-22T11:36:08;2.92;;;2.30;;
18376;SDS011;9315;52.624;13.544;2023-06-22T11:38:37;2.53;;;2.20;;
18376;SDS011;9315;52.624;13.544;2023-06-22T11:41:05;4.68;;;2.17;;
18376;SDS011;9315;52.624;13.544;2023-06-22T11:43:34;3.35;;;2.20;;
18376;SDS011;9315;52.624;13.544;2023-06-22T11:46:02;3.13;;;2.05;;
18376;SDS011;9315;52.624;13.544;2023-06-22T11:48:30;3.85;;;2.50;;
18376;SDS011;9315;52.624;13.544;2023-06-22T11:50:58;3.70;;;2.65;;
18376;SDS011;9315;52.624;13.544;2023-06-22T11:53:26;8.73;;;2.42;;
18376;SDS011;9315;52.624;13.544;2023-06-22T11:55:54;3.03;;;2.35;;
18376;SDS011;9315;52.624;13.544;2023-06-22T11:58:22;3.30;;;2.10;;
18376;SDS011;9315;52.624;13.544;2023-06-22T12:00:49;4.05;;;2.05;;
18376;SDS011;9315;52.624;13.544;2023-06-22T12:03:19;3.65;;;2.30;;
18376;SDS011;9315;52.624;13.544;2023-06-22T12:05:50;6.97;;;2.63;;
18376;SDS011;9315;52.624;13.544;2023-06-22T12:08:18;5.28;;;2.58;;
18376;SDS011;9315;52.624;13.544;2023-06-22T12:10:55;3.88;;;2.30;;
18376;SDS011;9315;52.624;13.544;2023-06-22T12:13:22;3.03;;;2.42;;
18376;SDS011;9315;52.624;13.544;2023-06-22T12:15:50;6.32;;;2.35;;
18376;SDS011;9315;52.624;13.544;2023-06-22T12:18:18;3.30;;;2.53;;
18376;SDS011;9315;52.624;13.544;2023-06-22T12:20:47;3.22;;;2.22;;
18376;SDS011;9315;52.624;13.544;2023-06-22T12:23:15;4.35;;;2.40;;
18376;SDS011;9315;52.624;13.544;2023-06-22T12:25:44;4.38;;;2.08;;
18376;SDS011;9315;52.624;13.544;2023-06-22T12:28:12;2.50;;;2.30;;
18376;SDS011;9315;52.624;13.544;2023-06-22T12:30:39;7.03;;;2.28;;
18376;SDS011;9315;52.624;13.544;2023-06-22T12:33:06;6.15;;;2.35;;
18376;SDS011;9315;52.624;13.544;2023-06-22T12:35:34;3.03;;;2.20;;
18376;SDS011;9315;52.624;13.544;2023-06-22T12:38:01;2.58;;;2.38;;
18376;SDS011;9315;52.624;13.544;2023-06-22T12:40:29;5.07;;;2.33;;
18376;SDS011;9315;52.624;13.544;2023-06-22T12:42:57;5.75;;;2.55;;
18376;SDS011;9315;52.624;13.544;2023-06-22T12:45:24;3.33;;;2.35;;
18376;SDS011;9315;52.624;13.544;2023-06-22T12:47:55;3.00;;;2.20;;
18376;SDS011;9315;52.624;13.544;2023-06-22T12:50:22;3.95;;;2.90;;
18376;SDS011;9315;52.624;13.544;2023-06-22T12:52:49;3.45;;;2.67;;
18376;SDS011;9315;52.624;13.544;2023-06-22T12:55:17;2.90;;;2.58;;
18376;SDS011;9315;52.624;13.544;2023-06-22T12:57:44;2.95;;;2.55;;
18376;SDS011;9315;52.624;13.544;2023-06-22T13:00:14;3.78;;;2.90;;
18376;SDS011;9315;52.624;13.544;2023-06-22T13:02:42;5.63;;;2.78;;
18376;SDS011;9315;52.624;13.544;2023-06-22T13:05:10;4.10;;;2.97;;
18376;SDS011;9315;52.624;13.544;2023-06-22T13:07:37;4.70;;;2.78;;
18376;SDS011;9315;52.624;13.544;2023-06-22T13:10:04;3.95;;;2.70;;
18376;SDS011;9315;52.624;13.544;2023-06-22T13:12:33;4.97;;;2.60;;
18376;SDS011;9315;52.624;13.544;2023-06-22T13:15:00;4.13;;;2.78;;
18376;SDS011;9315;52.624;13.544;2023-06-22T13:17:29;3.70;;;2.80;;
18376;SDS011;9315;52.624;13.544;2023-06-22T13:19:56;2.97;;;2.72;;
18376;SDS011;9315;52.624;13.544;2023-06-22T13:22:28;5.25;;;3.13;;
18376;SDS011;9315;52.624;13.544;2023-06-22T13:25:06;3.15;;;2.85;;
18376;SDS011;9315;52.624;13.544;2023-06-22T13:27:38;7.03;;;3.10;;
18376;SDS011;9315;52.624;13.544;2023-06-22T13:30:10;7.25;;;3.15;;
18376;SDS011;9315;52.624;13.544;2023-06-22T13:32:40;5.53;;;2.80;;
18376;SDS011;9315;52.624;13.544;2023-06-22T13:35:09;3.75;;;3.20;;
18376;SDS011;9315;52.624;13.544;2023-06-22T13:37:37;3.90;;;3.10;;
18376;SDS011;9315;52.624;13.544;2023-06-22T13:40:05;4.15;;;3.40;;
18376;SDS011;9315;52.624;13.544;2023-06-22T13:42:34;7.10;;;2.90;;
18376;SDS011;9315;52.624;13.544;2023-06-22T13:45:02;3.80;;;3.40;;
18376;SDS011;9315;52.624;13.544;2023-06-22T13:47:34;3.38;;;2.85;;
18376;SDS011;9315;52.624;13.544;2023-06-22T13:50:01;3.45;;;3.15;;
18376;SDS011;9315;52.624;13.544;2023-06-22T13:52:29;5.10;;;2.95;;
18376;SDS011;9315;52.624;13.544;2023-06-22T13:54:56;5.10;;;3.40;;
18376;SDS011;9315;52.624;13.544;2023-06-22T13:57:23;3.10;;;2.80;;
18376;SDS011;9315;52.624;13.544;2023-06-22T13:59:50;4.28;;;2.78;;
18376;SDS011;9315;52.624;13.544;2023-06-22T14:02:18;3.22;;;2.92;;
18376;SDS011;9315;52.624;13.544;2023-06-22T14:04:46;13.20;;;3.47;;
18376;SDS011;9315;52.624;13.544;2023-06-22T14:07:13;3.42;;;3.03;;
18376;SDS011;9315;52.624;13.544;2023-06-22T14:09:40;3.55;;;3.25;;
18376;SDS011;9315;52.624;13.544;2023-06-22T14:12:08;3.70;;;3.10;;
18376;SDS011;9315;52.624;13.544;2023-06-22T14:14:37;3.40;;;3.10;;
18376;SDS011;9315;52.624;13.544;2023-06-22T14:17:05;3.20;;;3.00;;
18376;SDS011;9315;52.624;13.544;2023-06-22T14:19:32;3.67;;;3.33;;
18376;SDS011;9315;52.624;13.544;2023-06-22T14:21:59;3.72;;;3.42;;
18376;SDS011;9315;52.624;13.544;2023-06-22T14:24:27;3.58;;;3.20;;
18376;SDS011;9315;52.624;13.544;2023-06-22T14:26:56;3.55;;;3.25;;
18376;SDS011;9315;52.624;13.544;2023-06-22T14:29:24;5.95;;;3.35;;
18376;SDS011;9315;52.624;13.544;2023-06-22T14:31:52;5.78;;;3.80;;
18376;SDS011;9315;52.624;13.544;2023-06-22T14:34:19;8.73;;;3.67;;
18376;SDS011;9315;52.624;13.544;2023-06-22T14:36:47;5.28;;;3.45;;
18376;SDS011;9315;52.624;13.544;2023-06-22T14:39:14;4.32;;;3.53;;
18376;SDS011;9315;52.624;13.544;2023-06-22T14:41:41;5.28;;;3.65;;
18376;SDS011;9315;52.624;13.544;2023-06-22T14:44:08;5.47;;;3.88;;
18376;SDS011;9315;52.624;13.544;2023-06-22T14:46:39;6.13;;;3.70;;
18376;SDS011;9315;52.624;13.544;2023-06-22T14:49:06;4.05;;;3.70;;
18376;SDS011;9315;52.624;13.544;2023-06-22T14:51:33;3.78;;;3.30;;